sensor_id;sensor_type;location;lat;lon;timestamp;P1;durP1;ratioP1;P2;durP2;ratioP2
37280;SDS011;23169;41.804;12.596;2023-05-07T00:01:18;6.38;;;3.78;;
37280;SDS011;23169;41.804;12.596;2023-05-07T00:03:51;4.60;;;3.40;;
37280;SDS011;23169;41.804;12.596;2023-05-07T00:06:21;4.22;;;3.17;;
37280;SDS011;23169;41.804;12.596;2023-05-07T00:08:51;7.22;;;3.22;;
37280;SDS011;23169;41.804;12.596;2023-05-07T00:11:25;4.32;;;3.42;;
37280;SDS011;23169;41.804;12.596;2023-05-07T00:14:04;6.53;;;3.55;;
37280;SDS011;23169;41.804;12.596;2023-05-07T00:16:33;3.22;;;2.80;;
37280;SDS011;23169;41.804;12.596;2023-05-07T00:19:03;8.25;;;3.40;;
37280;SDS011;23169;41.804;12.596;2023-05-07T00:21:32;6.28;;;3.80;;
37280;SDS011;23169;41.804;12.596;2023-05-07T00:24:01;5.25;;;3.80;;
37280;SDS011;23169;41.804;12.596;2023-05-07T00:26:44;5.15;;;4.20;;
37280;SDS011;23169;41.804;12.596;2023-05-07T00:29:12;8.85;;;4.57;;
37280;SDS011;23169;41.804;12.596;2023-05-07T00:31:42;8.88;;;4.55;;
37280;SDS011;23169;41.804;12.596;2023-05-07T00:34:11;4.97;;;3.80;;
37280;SDS011;23169;41.804;12.596;2023-05-07T00:36:43;7.10;;;4.35;;
37280;SDS011;23169;41.804;12.596;2023-05-07T00:39:12;10.73;;;4.47;;
37280;SDS011;23169;41.804;12.596;2023-05-07T00:41:41;7.32;;;4.20;;
37280;SDS011;23169;41.804;12.596;2023-05-07T00:44:10;10.15;;;4.75;;
37280;SDS011;23169;41.804;12.596;2023-05-07T00:46:39;6.97;;;4.55;;
37280;SDS011;23169;41.804;12.596;2023-05-07T00:49:09;8.23;;;4.85;;
37280;SDS011;23169;41.804;12.596;2023-05-07T00:51:42;19.17;;;9.68;;
37280;SDS011;23169;41.804;12.596;2023-05-07T00:54:14;8.98;;;6.00;;
37280;SDS011;23169;41.804;12.596;2023-05-07T00:56:43;11.45;;;6.25;;
37280;SDS011;23169;41.804;12.596;2023-05-07T00:59:13;10.90;;;6.10;;
37280;SDS011;23169;41.804;12.596;2023-05-07T01:01:43;10.18;;;6.22;;
37280;SDS011;23169;41.804;12.596;2023-05-07T01:04:12;8.30;;;5.45;;
37280;SDS011;23169;41.804;12.596;2023-05-07T01:06:40;9.90;;;5.15;;
37280;SDS011;23169;41.804;12.596;2023-05-07T01:09:09;7.65;;;4.70;;
37280;SDS011;23169;41.804;12.596;2023-05-07T01:11:39;9.27;;;4.95;;
37280;SDS011;23169;41.804;12.596;2023-05-07T01:14:10;16.08;;;5.80;;
37280;SDS011;23169;41.804;12.596;2023-05-07T01:16:40;6.70;;;4.63;;
37280;SDS011;23169;41.804;12.596;2023-05-07T01:19:09;10.80;;;5.50;;
37280;SDS011;23169;41.804;12.596;2023-05-07T01:21:44;8.13;;;4.95;;
37280;SDS011;23169;41.804;12.596;2023-05-07T01:24:15;7.88;;;4.95;;
37280;SDS011;23169;41.804;12.596;2023-05-07T01:26:44;8.25;;;4.80;;
37280;SDS011;23169;41.804;12.596;2023-05-07T01:29:13;7.43;;;4.60;;
37280;SDS011;23169;41.804;12.596;2023-05-07T01:31:46;7.68;;;4.47;;
37280;SDS011;23169;41.804;12.596;2023-05-07T01:34:16;7.25;;;4.45;;
37280;SDS011;23169;41.804;12.596;2023-05-07T01:36:47;7.32;;;4.65;;
37280;SDS011;23169;41.804;12.596;2023-05-07T01:39:16;6.43;;;4.55;;
37280;SDS011;23169;41.804;12.596;2023-05-07T01:41:46;8.45;;;4.60;;
37280;SDS011;23169;41.804;12.596;2023-05-07T01:44:15;7.60;;;4.10;;
37280;SDS011;23169;41.804;12.596;2023-05-07T01:46:46;8.90;;;3.83;;
37280;SDS011;23169;41.804;12.596;2023-05-07T01:49:16;6.10;;;4.05;;
37280;SDS011;23169;41.804;12.596;2023-05-07T01:51:47;8.32;;;4.25;;
37280;SDS011;23169;41.804;12.596;2023-05-07T01:54:16;8.15;;;4.20;;
37280;SDS011;23169;41.804;12.596;2023-05-07T01:56:44;6.38;;;4.53;;
37280;SDS011;23169;41.804;12.596;2023-05-07T01:59:15;7.07;;;4.32;;
37280;SDS011;23169;41.804;12.596;2023-05-07T02:01:44;9.23;;;4.40;;
37280;SDS011;23169;41.804;12.596;2023-05-07T02:04:16;8.40;;;4.60;;
37280;SDS011;23169;41.804;12.596;2023-05-07T02:06:45;6.75;;;4.28;;
37280;SDS011;23169;41.804;12.596;2023-05-07T02:09:14;8.85;;;4.20;;
37280;SDS011;23169;41.804;12.596;2023-05-07T02:11:45;4.72;;;3.38;;
37280;SDS011;23169;41.804;12.596;2023-05-07T02:14:14;6.15;;;3.55;;
37280;SDS011;23169;41.804;12.596;2023-05-07T02:16:43;5.45;;;3.80;;
37280;SDS011;23169;41.804;12.596;2023-05-07T02:19:12;4.63;;;3.45;;
37280;SDS011;23169;41.804;12.596;2023-05-07T02:21:40;4.22;;;3.17;;
37280;SDS011;23169;41.804;12.596;2023-05-07T02:24:09;4.43;;;3.20;;
37280;SDS011;23169;41.804;12.596;2023-05-07T02:26:39;5.40;;;3.20;;
37280;SDS011;23169;41.804;12.596;2023-05-07T02:29:08;4.93;;;3.10;;
37280;SDS011;23169;41.804;12.596;2023-05-07T02:31:37;5.18;;;3.30;;
37280;SDS011;23169;41.804;12.596;2023-05-07T02:34:06;5.20;;;3.17;;
37280;SDS011;23169;41.804;12.596;2023-05-07T02:36:35;4.53;;;3.20;;
37280;SDS011;23169;41.804;12.596;2023-05-07T02:39:04;3.17;;;2.85;;
37280;SDS011;23169;41.804;12.596;2023-05-07T02:41:33;5.20;;;2.70;;
37280;SDS011;23169;41.804;12.596;2023-05-07T02:44:02;5.15;;;2.55;;
37280;SDS011;23169;41.804;12.596;2023-05-07T02:46:31;6.93;;;2.70;;
37280;SDS011;23169;41.804;12.596;2023-05-07T02:49:02;4.63;;;2.65;;
37280;SDS011;23169;41.804;12.596;2023-05-07T02:51:31;5.53;;;3.05;;
37280;SDS011;23169;41.804;12.596;2023-05-07T02:54:00;4.15;;;2.83;;
37280;SDS011;23169;41.804;12.596;2023-05-07T02:56:29;3.65;;;2.85;;
37280;SDS011;23169;41.804;12.596;2023-05-07T02:58:58;3.75;;;3.15;;
37280;SDS011;23169;41.804;12.596;2023-05-07T03:01:26;3.60;;;2.88;;
37280;SDS011;23169;41.804;12.596;2023-05-07T03:03:55;3.10;;;2.70;;
37280;SDS011;23169;41.804;12.596;2023-05-07T03:06:24;9.38;;;2.95;;
37280;SDS011;23169;41.804;12.596;2023-05-07T03:08:52;4.05;;;3.00;;
37280;SDS011;23169;41.804;12.596;2023-05-07T03:11:21;4.82;;;3.55;;
37280;SDS011;23169;41.804;12.596;2023-05-07T03:13:49;4.03;;;3.25;;
37280;SDS011;23169;41.804;12.596;2023-05-07T03:16:18;3.63;;;2.70;;
37280;SDS011;23169;41.804;12.596;2023-05-07T03:18:49;4.20;;;3.30;;
37280;SDS011;23169;41.804;12.596;2023-05-07T03:21:18;5.03;;;3.72;;
37280;SDS011;23169;41.804;12.596;2023-05-07T03:23:47;4.47;;;3.35;;
37280;SDS011;23169;41.804;12.596;2023-05-07T03:26:16;4.50;;;3.30;;
37280;SDS011;23169;41.804;12.596;2023-05-07T03:28:46;6.75;;;3.97;;
37280;SDS011;23169;41.804;12.596;2023-05-07T03:31:14;5.45;;;3.90;;
37280;SDS011;23169;41.804;12.596;2023-05-07T03:33:50;6.43;;;3.60;;
37280;SDS011;23169;41.804;12.596;2023-05-07T03:36:23;10.18;;;4.13;;
37280;SDS011;23169;41.804;12.596;2023-05-07T03:38:51;8.13;;;4.40;;
37280;SDS011;23169;41.804;12.596;2023-05-07T03:41:20;10.57;;;4.85;;
37280;SDS011;23169;41.804;12.596;2023-05-07T03:43:48;11.88;;;6.30;;
37280;SDS011;23169;41.804;12.596;2023-05-07T03:46:20;14.23;;;7.28;;
37280;SDS011;23169;41.804;12.596;2023-05-07T03:48:48;12.45;;;6.20;;
37280;SDS011;23169;41.804;12.596;2023-05-07T03:51:17;11.90;;;6.35;;
37280;SDS011;23169;41.804;12.596;2023-05-07T03:53:46;10.43;;;5.68;;
37280;SDS011;23169;41.804;12.596;2023-05-07T03:56:15;14.55;;;6.30;;
37280;SDS011;23169;41.804;12.596;2023-05-07T03:58:44;8.88;;;5.57;;
37280;SDS011;23169;41.804;12.596;2023-05-07T04:01:12;11.25;;;5.72;;
37280;SDS011;23169;41.804;12.596;2023-05-07T04:03:41;9.68;;;5.30;;
37280;SDS011;23169;41.804;12.596;2023-05-07T04:06:10;10.95;;;5.32;;
37280;SDS011;23169;41.804;12.596;2023-05-07T04:08:39;8.55;;;5.10;;
37280;SDS011;23169;41.804;12.596;2023-05-07T04:11:08;6.85;;;4.32;;
37280;SDS011;23169;41.804;12.596;2023-05-07T04:13:36;5.22;;;3.78;;
37280;SDS011;23169;41.804;12.596;2023-05-07T04:16:05;8.85;;;4.50;;
37280;SDS011;23169;41.804;12.596;2023-05-07T04:18:34;7.85;;;4.45;;
37280;SDS011;23169;41.804;12.596;2023-05-07T04:21:04;6.72;;;4.68;;
37280;SDS011;23169;41.804;12.596;2023-05-07T04:23:33;8.55;;;4.85;;
37280;SDS011;23169;41.804;12.596;2023-05-07T04:26:02;8.65;;;4.68;;
37280;SDS011;23169;41.804;12.596;2023-05-07T04:28:32;10.00;;;4.60;;
37280;SDS011;23169;41.804;12.596;2023-05-07T04:31:02;7.28;;;4.55;;
37280;SDS011;23169;41.804;12.596;2023-05-07T04:33:31;8.38;;;4.78;;
37280;SDS011;23169;41.804;12.596;2023-05-07T04:36:03;8.02;;;4.97;;
37280;SDS011;23169;41.804;12.596;2023-05-07T04:38:33;7.85;;;4.95;;
37280;SDS011;23169;41.804;12.596;2023-05-07T04:41:06;9.20;;;5.03;;
37280;SDS011;23169;41.804;12.596;2023-05-07T04:43:35;7.85;;;4.70;;
37280;SDS011;23169;41.804;12.596;2023-05-07T04:46:03;11.25;;;5.57;;
37280;SDS011;23169;41.804;12.596;2023-05-07T04:48:33;12.30;;;5.20;;
37280;SDS011;23169;41.804;12.596;2023-05-07T04:51:02;7.20;;;4.85;;
37280;SDS011;23169;41.804;12.596;2023-05-07T04:53:31;8.23;;;5.03;;
37280;SDS011;23169;41.804;12.596;2023-05-07T04:56:00;9.02;;;5.03;;
37280;SDS011;23169;41.804;12.596;2023-05-07T04:58:29;8.60;;;5.13;;
37280;SDS011;23169;41.804;12.596;2023-05-07T05:00:59;9.70;;;4.70;;
37280;SDS011;23169;41.804;12.596;2023-05-07T05:03:29;8.68;;;4.70;;
37280;SDS011;23169;41.804;12.596;2023-05-07T05:05:58;7.25;;;4.50;;
37280;SDS011;23169;41.804;12.596;2023-05-07T05:08:29;7.20;;;4.85;;
37280;SDS011;23169;41.804;12.596;2023-05-07T05:11:00;9.10;;;4.22;;
37280;SDS011;23169;41.804;12.596;2023-05-07T05:13:33;5.13;;;3.55;;
37280;SDS011;23169;41.804;12.596;2023-05-07T05:16:02;4.07;;;3.53;;
37280;SDS011;23169;41.804;12.596;2023-05-07T05:18:31;5.40;;;3.13;;
37280;SDS011;23169;41.804;12.596;2023-05-07T05:21:00;4.25;;;3.03;;
37280;SDS011;23169;41.804;12.596;2023-05-07T05:23:30;5.88;;;3.20;;
37280;SDS011;23169;41.804;12.596;2023-05-07T05:25:58;4.40;;;3.33;;
37280;SDS011;23169;41.804;12.596;2023-05-07T05:28:28;6.15;;;2.70;;
37280;SDS011;23169;41.804;12.596;2023-05-07T05:30:57;6.43;;;3.13;;
37280;SDS011;23169;41.804;12.596;2023-05-07T05:33:26;4.80;;;2.97;;
37280;SDS011;23169;41.804;12.596;2023-05-07T05:35:55;13.40;;;4.50;;
37280;SDS011;23169;41.804;12.596;2023-05-07T05:38:23;9.52;;;4.88;;
37280;SDS011;23169;41.804;12.596;2023-05-07T05:40:52;11.02;;;5.63;;
37280;SDS011;23169;41.804;12.596;2023-05-07T05:43:20;10.68;;;5.47;;
37280;SDS011;23169;41.804;12.596;2023-05-07T05:45:49;10.25;;;5.60;;
37280;SDS011;23169;41.804;12.596;2023-05-07T05:48:18;12.57;;;5.80;;
37280;SDS011;23169;41.804;12.596;2023-05-07T05:50:47;18.23;;;6.38;;
37280;SDS011;23169;41.804;12.596;2023-05-07T05:53:15;13.23;;;5.72;;
37280;SDS011;23169;41.804;12.596;2023-05-07T05:55:44;12.55;;;6.10;;
37280;SDS011;23169;41.804;12.596;2023-05-07T05:58:15;10.88;;;5.25;;
37280;SDS011;23169;41.804;12.596;2023-05-07T06:00:44;8.50;;;5.28;;
37280;SDS011;23169;41.804;12.596;2023-05-07T06:03:13;11.55;;;5.60;;
37280;SDS011;23169;41.804;12.596;2023-05-07T06:05:42;10.85;;;5.65;;
37280;SDS011;23169;41.804;12.596;2023-05-07T06:08:11;7.03;;;4.57;;
37280;SDS011;23169;41.804;12.596;2023-05-07T06:10:43;8.95;;;4.80;;
37280;SDS011;23169;41.804;12.596;2023-05-07T06:13:11;10.90;;;5.18;;
37280;SDS011;23169;41.804;12.596;2023-05-07T06:15:40;9.68;;;4.85;;
37280;SDS011;23169;41.804;12.596;2023-05-07T06:18:09;9.13;;;4.90;;
37280;SDS011;23169;41.804;12.596;2023-05-07T06:20:38;8.63;;;4.60;;
37280;SDS011;23169;41.804;12.596;2023-05-07T06:23:07;11.35;;;5.22;;
37280;SDS011;23169;41.804;12.596;2023-05-07T06:25:37;9.35;;;4.80;;
37280;SDS011;23169;41.804;12.596;2023-05-07T06:28:08;8.65;;;5.20;;
37280;SDS011;23169;41.804;12.596;2023-05-07T06:30:38;11.07;;;5.10;;
37280;SDS011;23169;41.804;12.596;2023-05-07T06:33:13;8.15;;;5.05;;
37280;SDS011;23169;41.804;12.596;2023-05-07T06:35:42;9.90;;;5.20;;
37280;SDS011;23169;41.804;12.596;2023-05-07T06:38:11;8.10;;;4.70;;
37280;SDS011;23169;41.804;12.596;2023-05-07T06:40:40;8.55;;;4.93;;
37280;SDS011;23169;41.804;12.596;2023-05-07T06:43:09;10.43;;;5.18;;
37280;SDS011;23169;41.804;12.596;2023-05-07T06:45:38;9.68;;;4.78;;
37280;SDS011;23169;41.804;12.596;2023-05-07T06:48:06;8.43;;;4.55;;
37280;SDS011;23169;41.804;12.596;2023-05-07T06:50:35;11.30;;;4.28;;
37280;SDS011;23169;41.804;12.596;2023-05-07T06:53:03;8.07;;;4.47;;
37280;SDS011;23169;41.804;12.596;2023-05-07T06:55:33;10.50;;;4.55;;
37280;SDS011;23169;41.804;12.596;2023-05-07T06:58:01;8.75;;;4.65;;
37280;SDS011;23169;41.804;12.596;2023-05-07T07:00:31;9.27;;;4.85;;
37280;SDS011;23169;41.804;12.596;2023-05-07T07:03:00;8.40;;;4.80;;
37280;SDS011;23169;41.804;12.596;2023-05-07T07:05:28;12.50;;;5.18;;
37280;SDS011;23169;41.804;12.596;2023-05-07T07:07:57;8.10;;;4.78;;
37280;SDS011;23169;41.804;12.596;2023-05-07T07:10:25;10.20;;;4.40;;
37280;SDS011;23169;41.804;12.596;2023-05-07T07:12:54;5.32;;;3.45;;
37280;SDS011;23169;41.804;12.596;2023-05-07T07:15:22;6.90;;;4.28;;
37280;SDS011;23169;41.804;12.596;2023-05-07T07:17:52;8.27;;;4.82;;
37280;SDS011;23169;41.804;12.596;2023-05-07T07:20:21;6.25;;;3.70;;
37280;SDS011;23169;41.804;12.596;2023-05-07T07:22:49;5.90;;;3.45;;
37280;SDS011;23169;41.804;12.596;2023-05-07T07:25:18;6.20;;;3.80;;
37280;SDS011;23169;41.804;12.596;2023-05-07T07:27:46;10.10;;;4.32;;
37280;SDS011;23169;41.804;12.596;2023-05-07T07:30:15;7.72;;;4.30;;
37280;SDS011;23169;41.804;12.596;2023-05-07T07:32:44;7.07;;;4.35;;
37280;SDS011;23169;41.804;12.596;2023-05-07T07:35:12;6.47;;;3.67;;
37280;SDS011;23169;41.804;12.596;2023-05-07T07:37:42;6.75;;;3.60;;
37280;SDS011;23169;41.804;12.596;2023-05-07T07:40:11;6.18;;;3.10;;
37280;SDS011;23169;41.804;12.596;2023-05-07T07:42:40;5.57;;;3.20;;
37280;SDS011;23169;41.804;12.596;2023-05-07T07:45:08;5.45;;;3.53;;
37280;SDS011;23169;41.804;12.596;2023-05-07T07:47:40;7.03;;;3.17;;
37280;SDS011;23169;41.804;12.596;2023-05-07T07:50:09;6.72;;;3.60;;
37280;SDS011;23169;41.804;12.596;2023-05-07T07:52:38;4.47;;;3.40;;
37280;SDS011;23169;41.804;12.596;2023-05-07T07:55:06;7.50;;;3.83;;
37280;SDS011;23169;41.804;12.596;2023-05-07T07:57:36;3.95;;;3.50;;
37280;SDS011;23169;41.804;12.596;2023-05-07T08:00:04;5.47;;;3.28;;
37280;SDS011;23169;41.804;12.596;2023-05-07T08:02:35;5.00;;;3.85;;
37280;SDS011;23169;41.804;12.596;2023-05-07T08:05:03;7.53;;;4.57;;
37280;SDS011;23169;41.804;12.596;2023-05-07T08:07:32;5.38;;;3.35;;
37280;SDS011;23169;41.804;12.596;2023-05-07T08:10:01;7.38;;;3.60;;
37280;SDS011;23169;41.804;12.596;2023-05-07T08:12:31;4.07;;;3.20;;
37280;SDS011;23169;41.804;12.596;2023-05-07T08:14:59;8.27;;;3.58;;
37280;SDS011;23169;41.804;12.596;2023-05-07T08:17:28;7.57;;;3.80;;
37280;SDS011;23169;41.804;12.596;2023-05-07T08:19:57;8.77;;;3.83;;
37280;SDS011;23169;41.804;12.596;2023-05-07T08:22:27;5.68;;;3.40;;
37280;SDS011;23169;41.804;12.596;2023-05-07T08:24:56;6.80;;;3.63;;
37280;SDS011;23169;41.804;12.596;2023-05-07T08:27:25;3.88;;;3.30;;
37280;SDS011;23169;41.804;12.596;2023-05-07T08:29:53;5.38;;;3.58;;
37280;SDS011;23169;41.804;12.596;2023-05-07T08:32:22;4.97;;;3.58;;
37280;SDS011;23169;41.804;12.596;2023-05-07T08:34:51;6.78;;;4.10;;
37280;SDS011;23169;41.804;12.596;2023-05-07T08:37:20;6.80;;;4.15;;
37280;SDS011;23169;41.804;12.596;2023-05-07T08:39:49;7.93;;;4.45;;
37280;SDS011;23169;41.804;12.596;2023-05-07T08:42:17;6.07;;;3.90;;
37280;SDS011;23169;41.804;12.596;2023-05-07T08:44:48;5.70;;;3.53;;
37280;SDS011;23169;41.804;12.596;2023-05-07T08:47:22;6.30;;;3.70;;
37280;SDS011;23169;41.804;12.596;2023-05-07T08:49:57;4.60;;;3.65;;
37280;SDS011;23169;41.804;12.596;2023-05-07T08:52:26;7.32;;;3.88;;
37280;SDS011;23169;41.804;12.596;2023-05-07T08:54:58;4.32;;;3.25;;
37280;SDS011;23169;41.804;12.596;2023-05-07T08:57:28;8.95;;;4.53;;
37280;SDS011;23169;41.804;12.596;2023-05-07T08:59:59;7.85;;;4.10;;
37280;SDS011;23169;41.804;12.596;2023-05-07T09:02:28;8.10;;;4.00;;
37280;SDS011;23169;41.804;12.596;2023-05-07T09:04:57;6.70;;;3.75;;
37280;SDS011;23169;41.804;12.596;2023-05-07T09:07:26;8.57;;;3.90;;
37280;SDS011;23169;41.804;12.596;2023-05-07T09:09:54;7.55;;;3.92;;
37280;SDS011;23169;41.804;12.596;2023-05-07T09:12:23;9.93;;;4.20;;
37280;SDS011;23169;41.804;12.596;2023-05-07T09:14:53;11.73;;;4.63;;
37280;SDS011;23169;41.804;12.596;2023-05-07T09:17:21;13.25;;;5.30;;
37280;SDS011;23169;41.804;12.596;2023-05-07T09:19:50;11.30;;;4.57;;
37280;SDS011;23169;41.804;12.596;2023-05-07T09:22:20;6.13;;;3.97;;
37280;SDS011;23169;41.804;12.596;2023-05-07T09:24:54;7.57;;;4.03;;
37280;SDS011;23169;41.804;12.596;2023-05-07T09:27:27;9.75;;;4.45;;
37280;SDS011;23169;41.804;12.596;2023-05-07T09:29:56;5.97;;;4.20;;
37280;SDS011;23169;41.804;12.596;2023-05-07T09:32:24;7.78;;;4.10;;
37280;SDS011;23169;41.804;12.596;2023-05-07T09:34:55;7.40;;;4.22;;
37280;SDS011;23169;41.804;12.596;2023-05-07T09:37:23;8.52;;;4.07;;
37280;SDS011;23169;41.804;12.596;2023-05-07T09:39:54;5.68;;;4.07;;
37280;SDS011;23169;41.804;12.596;2023-05-07T09:42:23;6.07;;;4.10;;
37280;SDS011;23169;41.804;12.596;2023-05-07T09:44:54;8.18;;;4.28;;
37280;SDS011;23169;41.804;12.596;2023-05-07T09:47:23;5.82;;;3.65;;
37280;SDS011;23169;41.804;12.596;2023-05-07T09:49:56;8.43;;;4.50;;
37280;SDS011;23169;41.804;12.596;2023-05-07T09:52:25;6.88;;;4.13;;
37280;SDS011;23169;41.804;12.596;2023-05-07T09:55:01;11.63;;;4.30;;
37280;SDS011;23169;41.804;12.596;2023-05-07T09:57:31;6.28;;;3.72;;
37280;SDS011;23169;41.804;12.596;2023-05-07T10:00:02;6.72;;;3.92;;
37280;SDS011;23169;41.804;12.596;2023-05-07T10:02:36;6.82;;;4.00;;
37280;SDS011;23169;41.804;12.596;2023-05-07T10:05:14;7.90;;;4.13;;
37280;SDS011;23169;41.804;12.596;2023-05-07T10:07:44;6.05;;;3.72;;
37280;SDS011;23169;41.804;12.596;2023-05-07T10:10:13;6.93;;;4.15;;
37280;SDS011;23169;41.804;12.596;2023-05-07T10:12:46;7.47;;;4.07;;
37280;SDS011;23169;41.804;12.596;2023-05-07T10:15:15;5.78;;;4.03;;
37280;SDS011;23169;41.804;12.596;2023-05-07T10:17:45;6.43;;;4.45;;
37280;SDS011;23169;41.804;12.596;2023-05-07T10:20:14;6.47;;;4.32;;
37280;SDS011;23169;41.804;12.596;2023-05-07T10:22:43;6.28;;;4.10;;
37280;SDS011;23169;41.804;12.596;2023-05-07T10:25:23;6.60;;;3.97;;
37280;SDS011;23169;41.804;12.596;2023-05-07T10:28:03;4.50;;;3.22;;
37280;SDS011;23169;41.804;12.596;2023-05-07T10:36:01;8.07;;;3.92;;
37280;SDS011;23169;41.804;12.596;2023-05-07T10:38:36;5.32;;;3.60;;
37280;SDS011;23169;41.804;12.596;2023-05-07T10:41:05;6.47;;;4.18;;
37280;SDS011;23169;41.804;12.596;2023-05-07T10:43:42;5.05;;;3.75;;
37280;SDS011;23169;41.804;12.596;2023-05-07T10:51:32;6.82;;;3.05;;
37280;SDS011;23169;41.804;12.596;2023-05-07T10:56:41;4.40;;;2.72;;
37280;SDS011;23169;41.804;12.596;2023-05-07T11:01:53;4.55;;;2.53;;
37280;SDS011;23169;41.804;12.596;2023-05-07T11:04:23;7.40;;;2.83;;
37280;SDS011;23169;41.804;12.596;2023-05-07T11:15:07;5.75;;;2.90;;
37280;SDS011;23169;41.804;12.596;2023-05-07T11:17:55;4.07;;;3.30;;
37280;SDS011;23169;41.804;12.596;2023-05-07T11:26:08;5.78;;;2.60;;
37280;SDS011;23169;41.804;12.596;2023-05-07T11:28:40;2.95;;;2.65;;
37280;SDS011;23169;41.804;12.596;2023-05-07T11:31:10;6.03;;;2.88;;
37280;SDS011;23169;41.804;12.596;2023-05-07T11:33:39;6.80;;;3.47;;
37280;SDS011;23169;41.804;12.596;2023-05-07T11:36:09;3.88;;;3.08;;
37280;SDS011;23169;41.804;12.596;2023-05-07T11:38:38;5.95;;;3.30;;
37280;SDS011;23169;41.804;12.596;2023-05-07T11:41:07;4.28;;;3.00;;
37280;SDS011;23169;41.804;12.596;2023-05-07T11:43:36;3.03;;;2.35;;
37280;SDS011;23169;41.804;12.596;2023-05-07T11:46:09;5.28;;;2.78;;
37280;SDS011;23169;41.804;12.596;2023-05-07T11:48:39;6.78;;;2.95;;
37280;SDS011;23169;41.804;12.596;2023-05-07T11:51:09;4.32;;;3.08;;
37280;SDS011;23169;41.804;12.596;2023-05-07T11:53:41;5.45;;;3.10;;
37280;SDS011;23169;41.804;12.596;2023-05-07T11:56:11;6.13;;;2.95;;
37280;SDS011;23169;41.804;12.596;2023-05-07T11:58:41;6.10;;;3.58;;
37280;SDS011;23169;41.804;12.596;2023-05-07T12:01:11;2.90;;;2.55;;
37280;SDS011;23169;41.804;12.596;2023-05-07T12:03:44;4.57;;;2.80;;
37280;SDS011;23169;41.804;12.596;2023-05-07T12:06:15;8.75;;;3.20;;
37280;SDS011;23169;41.804;12.596;2023-05-07T12:08:45;3.63;;;2.75;;
37280;SDS011;23169;41.804;12.596;2023-05-07T12:11:15;3.47;;;2.88;;
37280;SDS011;23169;41.804;12.596;2023-05-07T12:13:49;3.40;;;2.67;;
37280;SDS011;23169;41.804;12.596;2023-05-07T12:16:18;5.35;;;2.83;;
37280;SDS011;23169;41.804;12.596;2023-05-07T12:18:48;3.85;;;2.65;;
37280;SDS011;23169;41.804;12.596;2023-05-07T12:21:17;4.03;;;2.13;;
37280;SDS011;23169;41.804;12.596;2023-05-07T12:23:46;3.65;;;2.60;;
37280;SDS011;23169;41.804;12.596;2023-05-07T12:26:15;5.82;;;3.00;;
37280;SDS011;23169;41.804;12.596;2023-05-07T12:28:45;3.55;;;3.10;;
37280;SDS011;23169;41.804;12.596;2023-05-07T12:31:14;4.28;;;3.17;;
37280;SDS011;23169;41.804;12.596;2023-05-07T12:33:45;3.67;;;2.67;;
37280;SDS011;23169;41.804;12.596;2023-05-07T12:36:15;3.22;;;2.60;;
37280;SDS011;23169;41.804;12.596;2023-05-07T12:38:44;4.15;;;2.60;;
37280;SDS011;23169;41.804;12.596;2023-05-07T12:41:15;3.95;;;2.85;;
37280;SDS011;23169;41.804;12.596;2023-05-07T12:43:55;7.63;;;2.78;;
37280;SDS011;23169;41.804;12.596;2023-05-07T12:46:26;4.78;;;2.83;;
37280;SDS011;23169;41.804;12.596;2023-05-07T12:48:54;7.32;;;2.70;;
37280;SDS011;23169;41.804;12.596;2023-05-07T12:51:23;3.13;;;2.75;;
37280;SDS011;23169;41.804;12.596;2023-05-07T12:53:52;2.85;;;2.40;;
37280;SDS011;23169;41.804;12.596;2023-05-07T12:56:24;3.65;;;2.90;;
37280;SDS011;23169;41.804;12.596;2023-05-07T12:58:56;3.00;;;2.67;;
37280;SDS011;23169;41.804;12.596;2023-05-07T13:01:29;3.65;;;2.47;;
37280;SDS011;23169;41.804;12.596;2023-05-07T13:04:04;3.15;;;2.38;;
37280;SDS011;23169;41.804;12.596;2023-05-07T13:06:33;4.28;;;2.30;;
37280;SDS011;23169;41.804;12.596;2023-05-07T13:09:02;2.78;;;2.05;;
37280;SDS011;23169;41.804;12.596;2023-05-07T13:11:32;3.72;;;2.50;;
37280;SDS011;23169;41.804;12.596;2023-05-07T13:14:01;2.95;;;2.28;;
37280;SDS011;23169;41.804;12.596;2023-05-07T13:16:30;4.30;;;2.75;;
37280;SDS011;23169;41.804;12.596;2023-05-07T13:18:59;3.00;;;2.10;;
37280;SDS011;23169;41.804;12.596;2023-05-07T13:21:29;4.47;;;2.60;;
37280;SDS011;23169;41.804;12.596;2023-05-07T13:24:01;3.45;;;2.45;;
37280;SDS011;23169;41.804;12.596;2023-05-07T13:26:32;3.17;;;2.38;;
37280;SDS011;23169;41.804;12.596;2023-05-07T13:29:00;3.28;;;2.30;;
37280;SDS011;23169;41.804;12.596;2023-05-07T13:31:30;2.58;;;2.25;;
37280;SDS011;23169;41.804;12.596;2023-05-07T13:33:58;4.63;;;2.42;;
37280;SDS011;23169;41.804;12.596;2023-05-07T13:36:27;6.28;;;2.25;;
37280;SDS011;23169;41.804;12.596;2023-05-07T13:38:56;5.13;;;2.47;;
37280;SDS011;23169;41.804;12.596;2023-05-07T13:41:28;3.75;;;2.25;;
37280;SDS011;23169;41.804;12.596;2023-05-07T13:43:58;3.13;;;2.30;;
37280;SDS011;23169;41.804;12.596;2023-05-07T13:46:27;2.83;;;2.15;;
37280;SDS011;23169;41.804;12.596;2023-05-07T13:48:58;2.70;;;2.08;;
37280;SDS011;23169;41.804;12.596;2023-05-07T13:51:27;4.88;;;2.42;;
37280;SDS011;23169;41.804;12.596;2023-05-07T13:53:55;4.07;;;2.80;;
37280;SDS011;23169;41.804;12.596;2023-05-07T13:56:24;3.33;;;2.60;;
37280;SDS011;23169;41.804;12.596;2023-05-07T13:58:53;3.20;;;2.40;;
37280;SDS011;23169;41.804;12.596;2023-05-07T14:01:24;2.55;;;2.08;;
37280;SDS011;23169;41.804;12.596;2023-05-07T14:03:52;2.88;;;2.15;;
37280;SDS011;23169;41.804;12.596;2023-05-07T14:06:21;3.00;;;2.40;;
37280;SDS011;23169;41.804;12.596;2023-05-07T14:08:50;6.53;;;2.45;;
37280;SDS011;23169;41.804;12.596;2023-05-07T14:11:19;4.03;;;2.22;;
37280;SDS011;23169;41.804;12.596;2023-05-07T14:13:48;2.33;;;1.73;;
37280;SDS011;23169;41.804;12.596;2023-05-07T14:16:17;3.65;;;2.35;;
37280;SDS011;23169;41.804;12.596;2023-05-07T14:18:46;4.55;;;2.40;;
37280;SDS011;23169;41.804;12.596;2023-05-07T14:21:14;3.72;;;2.22;;
37280;SDS011;23169;41.804;12.596;2023-05-07T14:23:43;3.00;;;1.80;;
37280;SDS011;23169;41.804;12.596;2023-05-07T14:26:12;5.05;;;2.50;;
37280;SDS011;23169;41.804;12.596;2023-05-07T14:28:41;3.17;;;2.38;;
37280;SDS011;23169;41.804;12.596;2023-05-07T14:31:14;3.55;;;2.45;;
37280;SDS011;23169;41.804;12.596;2023-05-07T14:33:43;2.10;;;1.90;;
37280;SDS011;23169;41.804;12.596;2023-05-07T14:36:11;3.05;;;1.83;;
37280;SDS011;23169;41.804;12.596;2023-05-07T14:38:40;3.50;;;2.17;;
37280;SDS011;23169;41.804;12.596;2023-05-07T14:41:08;3.80;;;2.47;;
37280;SDS011;23169;41.804;12.596;2023-05-07T14:43:38;2.35;;;1.98;;
37280;SDS011;23169;41.804;12.596;2023-05-07T14:46:06;3.67;;;2.00;;
37280;SDS011;23169;41.804;12.596;2023-05-07T14:48:36;2.55;;;1.90;;
37280;SDS011;23169;41.804;12.596;2023-05-07T14:51:04;3.65;;;1.88;;
37280;SDS011;23169;41.804;12.596;2023-05-07T14:53:33;2.70;;;1.75;;
37280;SDS011;23169;41.804;12.596;2023-05-07T14:56:02;5.15;;;1.88;;
37280;SDS011;23169;41.804;12.596;2023-05-07T14:58:32;4.47;;;2.28;;
37280;SDS011;23169;41.804;12.596;2023-05-07T15:01:01;1.70;;;1.60;;
37280;SDS011;23169;41.804;12.596;2023-05-07T15:03:32;3.47;;;1.55;;
37280;SDS011;23169;41.804;12.596;2023-05-07T15:06:20;2.05;;;1.85;;
37280;SDS011;23169;41.804;12.596;2023-05-07T15:08:52;2.28;;;1.70;;
37280;SDS011;23169;41.804;12.596;2023-05-07T15:11:20;2.47;;;2.00;;
37280;SDS011;23169;41.804;12.596;2023-05-07T15:13:51;2.33;;;2.10;;
37280;SDS011;23169;41.804;12.596;2023-05-07T15:16:19;2.10;;;1.90;;
37280;SDS011;23169;41.804;12.596;2023-05-07T15:18:48;2.47;;;1.65;;